createdAt,value
2018-09-01T00:01:06.870Z,81.79
2018-09-01T00:03:36.011Z,82.09
2018-09-01T00:06:05.152Z,82.08
2018-09-01T00:08:34.264Z,81.88
2018-09-01T00:11:03.487Z,82.59
2018-09-01T00:13:32.835Z,83.56
2018-09-01T00:16:02.008Z,82.89
2018-09-01T00:18:31.161Z,83.08
2018-09-01T00:21:00.307Z,83.51
2018-09-01T00:23:29.968Z,83.90
2018-09-01T00:25:59.204Z,83.60
2018-09-01T00:28:28.339Z,83.91
2018-09-01T00:30:57.443Z,83.95
2018-09-01T00:33:26.652Z,84.48
2018-09-01T00:35:55.789Z,84.08
2018-09-01T00:38:30.083Z,84.50
2018-09-01T00:40:59.287Z,84.72
2018-09-01T00:43:28.510Z,85.36
2018-09-01T00:45:57.916Z,84.81
2018-09-01T00:48:27.038Z,84.94
2018-09-01T00:50:56.159Z,85.29
2018-09-01T00:53:25.317Z,86.11
2018-09-01T00:55:54.504Z,85.77
2018-09-01T00:58:23.638Z,85.96
2018-09-01T01:00:52.802Z,86.74
2018-09-01T01:03:22.005Z,85.83
2018-09-01T01:05:51.117Z,86.78
2018-09-01T01:08:20.306Z,86.87
2018-09-01T01:10:49.422Z,87.29
2018-09-01T01:13:18.547Z,87.50
2018-09-01T01:15:47.705Z,87.47
2018-09-01T01:18:16.877Z,87.17
2018-09-01T01:20:46.018Z,87.52
2018-09-01T01:23:15.347Z,87.57
2018-09-01T01:25:44.459Z,87.99
2018-09-01T01:28:13.655Z,88.16
2018-09-01T01:30:42.936Z,88.73
2018-09-01T01:33:12.073Z,87.97
2018-09-01T01:35:41.243Z,88.83
2018-09-01T01:38:10.502Z,88.59
2018-09-01T01:40:39.647Z,88.09
2018-09-01T01:43:08.860Z,88.98
2018-09-01T01:45:38.095Z,89.27
2018-09-01T01:48:07.308Z,89.30
2018-09-01T01:50:36.471Z,89.51
2018-09-01T01:53:05.647Z,89.57
2018-09-01T01:55:34.930Z,90.00
2018-09-01T01:58:04.231Z,89.32
2018-09-01T02:00:33.550Z,89.78
2018-09-01T02:03:02.751Z,89.06
2018-09-01T02:05:35.583Z,89.47
2018-09-01T02:08:05.076Z,89.27
2018-09-01T02:10:34.219Z,89.57
2018-09-01T02:13:03.467Z,88.59
2018-09-01T02:15:32.599Z,88.78
2018-09-01T02:18:01.772Z,89.58
2018-09-01T02:20:30.927Z,89.15
2018-09-01T02:23:00.204Z,89.50
2018-09-01T02:25:29.316Z,89.55
2018-09-01T02:27:58.556Z,90.34
2018-09-01T02:30:27.777Z,90.95
2018-09-01T02:32:57.025Z,90.93
2018-09-01T02:35:26.263Z,91.14
2018-09-01T02:37:55.460Z,90.57
2018-09-01T02:40:24.676Z,90.20
2018-09-01T02:42:53.869Z,90.02
2018-09-01T02:45:23.345Z,90.80
2018-09-01T02:47:52.515Z,90.47
2018-09-01T02:50:21.712Z,90.53
2018-09-01T02:52:50.839Z,91.15
2018-09-01T02:55:19.960Z,90.38
2018-09-01T02:57:49.200Z,90.87
2018-09-01T03:00:24.064Z,90.77
2018-09-01T03:02:53.213Z,90.56
2018-09-01T03:05:22.381Z,90.49
2018-09-01T03:07:51.499Z,90.80
2018-09-01T03:10:20.692Z,91.04
2018-09-01T03:12:49.851Z,91.60
2018-09-01T03:15:20.702Z,91.56
2018-09-01T03:17:50.362Z,91.38
2018-09-01T03:20:19.560Z,91.08
2018-09-01T03:22:48.724Z,90.83
2018-09-01T03:25:17.926Z,90.52
2018-09-01T03:27:47.127Z,90.56
2018-09-01T03:30:17.117Z,90.69
2018-09-01T03:32:47.127Z,89.72
2018-09-01T03:35:16.314Z,90.05
2018-09-01T03:37:46.196Z,90.18
2018-09-01T03:40:15.378Z,88.96
2018-09-01T03:42:44.552Z,89.45
2018-09-01T03:45:14.717Z,89.00
2018-09-01T03:47:43.936Z,89.81
2018-09-01T03:50:13.101Z,89.79
2018-09-01T03:52:42.253Z,89.83
2018-09-01T03:55:11.485Z,89.43
2018-09-01T03:57:40.984Z,89.62
2018-09-01T04:00:11.451Z,89.44
2018-09-01T04:02:40.616Z,90.15
2018-09-01T04:05:09.913Z,89.98
2018-09-01T04:07:39.051Z,90.39
2018-09-01T04:10:08.180Z,89.97
2018-09-01T04:12:37.320Z,89.88
2018-09-01T04:15:07.816Z,89.85
2018-09-01T04:17:36.972Z,90.14
2018-09-01T04:20:06.156Z,90.19
2018-09-01T04:22:35.361Z,90.22
2018-09-01T04:25:04.619Z,90.17
2018-09-01T04:27:33.799Z,90.96
2018-09-01T04:30:03.048Z,90.50
2018-09-01T04:32:32.288Z,91.10
2018-09-01T04:35:02.413Z,90.80
2018-09-01T04:37:31.668Z,90.94
2018-09-01T04:40:00.959Z,91.13
2018-09-01T04:42:30.148Z,90.76
2018-09-01T04:44:59.307Z,91.52
2018-09-01T04:47:28.432Z,91.68
2018-09-01T04:49:57.761Z,91.51
2018-09-01T04:52:26.975Z,91.53
2018-09-01T04:54:56.118Z,91.96
2018-09-01T04:57:25.233Z,92.06
2018-09-01T04:59:54.383Z,91.83
2018-09-01T05:02:23.565Z,91.65
2018-09-01T05:04:52.735Z,92.06
2018-09-01T05:07:22.222Z,92.19
2018-09-01T05:09:51.483Z,91.52
2018-09-01T05:12:20.772Z,92.58
2018-09-01T05:14:49.941Z,91.90
2018-09-01T05:17:19.133Z,91.91
2018-09-01T05:19:48.322Z,91.52
2018-09-01T05:22:17.492Z,92.11
2018-09-01T05:24:46.639Z,91.77
2018-09-01T05:27:15.895Z,90.55
2018-09-01T05:29:45.051Z,89.83
2018-09-01T05:32:15.073Z,89.48
2018-09-01T05:34:44.313Z,88.90
2018-09-01T05:37:13.600Z,88.00
2018-09-01T05:39:42.816Z,86.81
2018-09-01T05:42:12.047Z,85.76
2018-09-01T05:44:41.288Z,85.33
2018-09-01T05:47:10.420Z,83.51
2018-09-01T05:49:39.575Z,82.45
2018-09-01T05:52:08.761Z,81.05
2018-09-01T05:54:38.005Z,79.72
2018-09-01T05:57:07.255Z,78.57
2018-09-01T05:59:36.464Z,77.76
2018-09-01T06:02:05.694Z,76.26
2018-09-01T06:04:34.892Z,75.32
2018-09-01T06:07:04.293Z,74.60
2018-09-01T06:09:33.917Z,73.24
2018-09-01T06:12:03.200Z,72.03
2018-09-01T06:14:32.429Z,71.24
2018-09-01T06:17:01.572Z,71.23
2018-09-01T06:19:30.691Z,69.33
2018-09-01T06:21:59.861Z,68.84
2018-09-01T06:24:29.011Z,69.09
2018-09-01T06:26:59.202Z,66.96
2018-09-01T06:29:28.364Z,66.97
2018-09-01T06:32:00.877Z,67.00
2018-09-01T06:34:30.136Z,65.52
2018-09-01T06:36:59.321Z,64.26
2018-09-01T06:39:28.651Z,63.71
2018-09-01T06:41:57.824Z,62.64
2018-09-01T06:44:27.041Z,62.75
2018-09-01T06:46:56.217Z,61.30
2018-09-01T06:49:25.485Z,60.35
2018-09-01T06:51:54.654Z,59.32
2018-09-01T06:54:23.919Z,59.04
2018-09-01T06:56:53.315Z,59.25
2018-09-01T06:59:22.564Z,58.02
2018-09-01T07:01:51.946Z,57.26
2018-09-01T07:04:21.341Z,57.45
2018-09-01T07:06:50.567Z,55.85
2018-09-01T07:09:19.792Z,56.92
2018-09-01T07:11:48.951Z,56.12
2018-09-01T07:14:18.187Z,55.50
2018-09-01T07:16:47.416Z,54.71
2018-09-01T07:19:16.660Z,53.94
2018-09-01T07:21:45.904Z,53.48
2018-09-01T07:24:15.105Z,50.92
2018-09-01T07:26:44.319Z,51.29
2018-09-01T07:29:13.440Z,51.93
2018-09-01T07:31:43.060Z,51.12
2018-09-01T07:34:12.316Z,50.73
2018-09-01T07:36:41.495Z,49.12
2018-09-01T07:39:10.621Z,48.01
2018-09-01T07:41:39.855Z,48.24
2018-09-01T07:44:09.151Z,48.71
2018-09-01T07:46:38.402Z,47.09
2018-09-01T07:49:08.025Z,48.09
2018-09-01T07:51:38.336Z,46.70
2018-09-01T07:54:07.572Z,47.81
2018-09-01T07:56:36.866Z,46.56
2018-09-01T07:59:06.039Z,45.79
2018-09-01T08:01:35.210Z,45.22
2018-09-01T08:04:04.772Z,46.98
2018-09-01T08:06:34.167Z,45.67
2018-09-01T08:09:03.372Z,44.22
2018-09-01T08:11:32.495Z,44.85
2018-09-01T08:14:02.170Z,45.03
2018-09-01T08:16:31.264Z,43.88
2018-09-01T08:19:00.423Z,43.00
2018-09-01T08:21:29.551Z,42.88
2018-09-01T08:23:58.756Z,41.08
2018-09-01T08:26:28.009Z,41.35
2018-09-01T08:28:57.230Z,40.04
2018-09-01T08:31:26.384Z,39.78
2018-09-01T08:33:55.640Z,39.09
2018-09-01T08:36:24.812Z,38.62
2018-09-01T08:38:54.029Z,36.66
2018-09-01T08:41:23.225Z,36.60
2018-09-01T08:43:52.904Z,36.87
2018-09-01T08:46:22.169Z,35.26
2018-09-01T08:49:07.710Z,35.67
2018-09-01T08:56:37.080Z,34.61
2018-09-01T08:59:06.169Z,35.69
2018-09-01T09:01:35.391Z,36.61
2018-09-01T09:04:04.575Z,36.03
2018-09-01T09:06:33.738Z,35.47
2018-09-01T09:09:02.834Z,35.71
2018-09-01T09:11:32.234Z,34.98
2018-09-01T09:14:01.311Z,34.01
2018-09-01T09:16:30.543Z,34.88
2018-09-01T09:18:59.763Z,34.56
2018-09-01T09:21:28.878Z,34.33
2018-09-01T09:23:58.043Z,34.65
2018-09-01T09:26:27.240Z,36.06
2018-09-01T09:28:56.417Z,33.57
2018-09-01T09:31:25.616Z,33.37
2018-09-01T09:33:54.800Z,33.98
2018-09-01T09:36:23.906Z,32.43
2018-09-01T09:38:53.092Z,32.01
2018-09-01T09:41:22.232Z,32.81
2018-09-01T09:43:51.397Z,31.51
2018-09-01T09:46:20.595Z,30.66
2018-09-01T09:48:49.869Z,31.04
2018-09-01T09:51:19.127Z,30.09
2018-09-01T09:53:48.357Z,31.97
2018-09-01T09:56:17.632Z,30.75
2018-09-01T09:58:46.802Z,32.42
2018-09-01T10:01:21.130Z,33.00
2018-09-01T10:03:50.276Z,35.74
2018-09-01T10:06:19.508Z,34.94
2018-09-01T10:08:48.745Z,34.21
2018-09-01T10:11:17.940Z,35.29
2018-09-01T10:13:47.070Z,34.46
2018-09-01T10:16:16.229Z,32.56
2018-09-01T10:18:45.342Z,33.56
2018-09-01T10:21:15.429Z,31.70
2018-09-01T10:23:44.576Z,31.64
2018-09-01T10:26:13.753Z,30.32
2018-09-01T10:28:42.960Z,28.84
2018-09-01T10:31:12.096Z,30.19
2018-09-01T10:33:41.248Z,28.45
2018-09-01T10:36:10.731Z,29.72
2018-09-01T10:38:39.851Z,30.05
2018-09-01T10:41:09.046Z,29.81
2018-09-01T10:43:38.148Z,31.57
2018-09-01T10:46:07.414Z,31.86
2018-09-01T10:48:36.564Z,32.75
2018-09-01T10:51:05.962Z,32.82
2018-09-01T10:53:35.168Z,33.83
2018-09-01T10:56:04.279Z,33.62
2018-09-01T10:58:33.535Z,34.72
2018-09-01T11:01:02.726Z,33.30
2018-09-01T11:03:31.859Z,30.87
2018-09-01T11:06:01.036Z,31.33
2018-09-01T11:08:30.192Z,31.64
2018-09-01T11:10:59.292Z,32.02
2018-09-01T11:13:28.411Z,34.19
2018-09-01T11:15:57.625Z,34.11
2018-09-01T11:18:26.775Z,32.42
2018-09-01T11:20:56.010Z,31.04
2018-09-01T11:23:25.108Z,31.42
2018-09-01T11:25:54.299Z,31.44
2018-09-01T11:28:23.517Z,31.74
2018-09-01T11:30:52.791Z,32.76
2018-09-01T11:33:21.977Z,33.81
2018-09-01T11:35:51.153Z,35.08
2018-09-01T11:38:20.364Z,36.12
2018-09-01T11:40:49.697Z,35.18
2018-09-01T11:43:18.971Z,31.68
2018-09-01T11:45:48.217Z,31.77
2018-09-01T11:48:17.445Z,30.60
2018-09-01T11:50:46.598Z,31.06
2018-09-01T11:53:15.960Z,29.03
2018-09-01T11:55:45.007Z,27.95
2018-09-01T11:58:14.179Z,26.93
2018-09-01T12:00:43.516Z,27.59
2018-09-01T12:03:12.645Z,28.99
2018-09-01T12:05:41.777Z,27.41
2018-09-01T12:08:10.876Z,26.18
2018-09-01T12:10:40.228Z,24.03
2018-09-01T12:13:09.413Z,25.02
2018-09-01T12:15:38.621Z,23.62
2018-09-01T12:18:07.820Z,24.61
2018-09-01T12:20:36.928Z,24.36
2018-09-01T12:23:06.276Z,26.61
2018-09-01T12:25:35.400Z,26.78
2018-09-01T12:28:04.609Z,27.25
2018-09-01T12:30:33.819Z,27.45
2018-09-01T12:33:03.009Z,29.10
2018-09-01T12:35:32.179Z,26.47
2018-09-01T12:38:01.257Z,25.80
2018-09-01T12:40:30.469Z,25.85
2018-09-01T12:42:59.651Z,25.45
2018-09-01T12:45:28.883Z,24.63
2018-09-01T12:47:58.108Z,25.77
2018-09-01T12:50:27.283Z,25.22
2018-09-01T12:52:57.714Z,27.16
2018-09-01T12:55:26.788Z,26.93
2018-09-01T12:57:55.976Z,26.89
2018-09-01T13:00:25.236Z,28.95
2018-09-01T13:02:54.548Z,29.77
2018-09-01T13:05:23.721Z,30.74
2018-09-01T13:07:53.009Z,31.46
2018-09-01T13:10:22.175Z,32.90
2018-09-01T13:12:51.282Z,31.47
2018-09-01T13:15:20.533Z,30.47
2018-09-01T13:17:49.642Z,28.36
2018-09-01T13:20:18.748Z,29.15
2018-09-01T13:22:47.959Z,28.69
2018-09-01T13:25:17.090Z,29.87
2018-09-01T13:27:46.164Z,28.27
2018-09-01T13:30:16.516Z,26.45
2018-09-01T13:32:45.679Z,28.54
2018-09-01T13:35:14.767Z,28.90
2018-09-01T13:37:43.912Z,27.64
2018-09-01T13:40:13.055Z,28.76
2018-09-01T13:42:42.171Z,28.57
2018-09-01T13:45:11.973Z,27.44
2018-09-01T13:47:41.124Z,29.58
2018-09-01T13:50:10.297Z,29.54
2018-09-01T13:52:39.420Z,30.50
2018-09-01T13:55:08.589Z,32.17
2018-09-01T13:57:37.688Z,31.10
2018-09-01T14:00:07.522Z,31.43
2018-09-01T14:02:36.640Z,31.16
2018-09-01T14:05:05.803Z,30.27
2018-09-01T14:07:34.964Z,30.12
2018-09-01T14:10:10.767Z,30.93
2018-09-01T14:12:39.993Z,29.39
2018-09-01T14:15:10.023Z,30.37
2018-09-01T14:17:39.437Z,29.49
2018-09-01T14:20:09.459Z,29.55
2018-09-01T14:22:38.625Z,29.00
2018-09-01T14:25:07.776Z,31.03
2018-09-01T14:27:37.010Z,31.42
2018-09-01T14:30:06.939Z,31.33
2018-09-01T14:32:36.121Z,30.49
2018-09-01T14:35:06.308Z,30.23
2018-09-01T14:37:35.496Z,31.94
2018-09-01T14:40:04.668Z,32.87
2018-09-01T14:42:33.988Z,31.53
2018-09-01T14:45:03.120Z,30.62
2018-09-01T14:47:32.514Z,32.94
2018-09-01T14:50:01.560Z,33.98
2018-09-01T14:52:30.696Z,33.65
2018-09-01T14:54:59.806Z,33.12
2018-09-01T14:57:29.029Z,33.97
2018-09-01T14:59:58.116Z,34.40
2018-09-01T15:02:27.374Z,34.15
2018-09-01T15:04:56.539Z,32.23
2018-09-01T15:07:25.729Z,32.89
2018-09-01T15:09:54.828Z,32.41
2018-09-01T15:12:24.072Z,32.83
2018-09-01T15:14:53.180Z,32.42
2018-09-01T15:17:22.448Z,32.76
2018-09-01T15:19:51.575Z,31.87
2018-09-01T15:22:20.864Z,31.66
2018-09-01T15:24:50.108Z,32.32
2018-09-01T15:27:19.312Z,33.83
2018-09-01T15:32:16.631Z,34.43
2018-09-01T15:34:45.764Z,35.36
2018-09-01T15:37:15.171Z,35.44
2018-09-01T15:39:44.391Z,35.07
2018-09-01T15:42:13.561Z,35.62
2018-09-01T15:44:42.701Z,35.34
2018-09-01T15:47:11.780Z,35.29
2018-09-01T15:49:40.943Z,36.25
2018-09-01T15:52:10.128Z,36.48
2018-09-01T15:54:39.236Z,34.16
2018-09-01T15:57:08.385Z,35.16
2018-09-01T15:59:37.500Z,35.77
2018-09-01T16:02:06.860Z,35.50
2018-09-01T16:04:36.045Z,35.44
2018-09-01T16:07:06.187Z,36.75
2018-09-01T16:09:35.372Z,36.19
2018-09-01T16:12:04.480Z,36.44
2018-09-01T16:14:33.644Z,37.73
2018-09-01T16:17:02.935Z,37.62
2018-09-01T16:19:32.044Z,37.08
2018-09-01T16:22:01.344Z,38.33
2018-09-01T16:24:30.554Z,37.39
2018-09-01T16:26:59.656Z,39.03
2018-09-01T16:29:28.780Z,38.42
2018-09-01T16:31:57.870Z,37.42
2018-09-01T16:34:27.098Z,37.69
2018-09-01T16:36:56.153Z,38.60
2018-09-01T16:39:25.334Z,38.49
2018-09-01T16:41:54.488Z,39.68
2018-09-01T16:44:23.751Z,40.10
2018-09-01T16:46:52.924Z,39.79
2018-09-01T16:49:22.355Z,40.04
2018-09-01T16:51:51.557Z,39.96
2018-09-01T16:54:20.800Z,39.66
2018-09-01T16:56:49.999Z,39.81
2018-09-01T16:59:19.261Z,40.15
2018-09-01T17:01:48.462Z,40.10
2018-09-01T17:04:17.663Z,39.75
2018-09-01T17:06:46.889Z,39.70
2018-09-01T17:09:16.959Z,39.60
2018-09-01T17:11:46.207Z,39.88
2018-09-01T17:14:15.421Z,39.85
2018-09-01T17:16:44.597Z,39.74
2018-09-01T17:19:13.743Z,39.50
2018-09-01T17:21:43.024Z,40.28
2018-09-01T17:24:12.248Z,40.40
2018-09-01T17:26:41.447Z,41.44
2018-09-01T17:29:10.576Z,40.48
2018-09-01T17:31:39.849Z,42.47
2018-09-01T17:34:09.086Z,44.17
2018-09-01T17:36:38.495Z,41.86
2018-09-01T17:39:10.299Z,43.96
2018-09-01T17:41:39.835Z,42.75
2018-09-01T17:44:08.841Z,41.51
2018-09-01T17:46:38.111Z,43.65
2018-09-01T17:49:07.492Z,42.97
2018-09-01T17:51:36.664Z,43.33
2018-09-01T17:54:05.803Z,42.72
2018-09-01T17:56:35.213Z,42.14
2018-09-01T17:59:04.437Z,43.07
2018-09-01T18:01:34.060Z,42.28
2018-09-01T18:04:03.292Z,43.17
2018-09-01T18:06:32.456Z,42.82
2018-09-01T18:09:01.779Z,42.58
2018-09-01T18:11:30.990Z,43.54
2018-09-01T18:14:00.225Z,42.55
2018-09-01T18:16:29.623Z,43.05
2018-09-01T18:18:58.846Z,43.31
2018-09-01T18:21:28.154Z,41.94
2018-09-01T18:23:57.440Z,42.68
2018-09-01T18:26:26.697Z,43.19
2018-09-01T18:28:55.945Z,44.06
2018-09-01T18:31:25.218Z,44.07
2018-09-01T18:33:54.682Z,43.59
2018-09-01T18:36:24.016Z,42.98
2018-09-01T18:38:53.642Z,43.88
2018-09-01T18:41:22.902Z,45.12
2018-09-01T18:43:55.632Z,44.04
2018-09-01T18:46:24.917Z,43.96
2018-09-01T18:48:54.198Z,44.64
2018-09-01T18:51:23.407Z,44.17
2018-09-01T18:53:52.969Z,44.78
2018-09-01T18:56:22.576Z,44.86
2018-09-01T18:58:51.874Z,45.34
2018-09-01T19:01:21.041Z,44.84
2018-09-01T19:03:50.303Z,44.88
2018-09-01T19:06:19.512Z,45.53
2018-09-01T19:08:48.749Z,47.73
2018-09-01T19:11:18.217Z,47.79
2018-09-01T19:13:47.518Z,49.62
2018-09-01T19:16:16.545Z,49.38
2018-09-01T19:18:45.968Z,50.76
2018-09-01T19:21:15.460Z,51.15
2018-09-01T19:23:44.652Z,52.41
2018-09-01T19:26:13.982Z,52.94
2018-09-01T19:28:43.343Z,52.82
2018-09-01T19:31:12.669Z,53.59
2018-09-01T19:33:42.789Z,53.95
2018-09-01T19:36:11.995Z,55.77
2018-09-01T19:38:41.285Z,55.55
2018-09-01T19:41:10.543Z,56.36
2018-09-01T19:43:39.903Z,56.45
2018-09-01T19:46:09.157Z,56.15
2018-09-01T19:48:38.373Z,56.20
2018-09-01T19:51:07.674Z,56.18
2018-09-01T19:53:36.831Z,56.98
2018-09-01T19:56:06.926Z,57.91
2018-09-01T19:58:36.123Z,58.71
2018-09-01T20:01:05.459Z,58.55
2018-09-01T20:03:34.790Z,58.38
2018-09-01T20:06:04.016Z,59.53
2018-09-01T20:08:33.328Z,59.39
2018-09-01T20:11:02.552Z,60.14
2018-09-01T20:13:31.789Z,60.37
2018-09-01T20:16:00.994Z,60.70
2018-09-01T20:18:30.192Z,60.86
2018-09-01T20:20:59.389Z,60.99
2018-09-01T20:23:28.584Z,61.50
2018-09-01T20:25:57.876Z,61.51
2018-09-01T20:28:27.100Z,62.80
2018-09-01T20:30:56.404Z,62.13
2018-09-01T20:33:25.633Z,63.04
2018-09-01T20:35:56.405Z,62.88
2018-09-01T20:38:26.926Z,62.95
2018-09-01T20:40:56.377Z,63.42
2018-09-01T20:43:26.128Z,63.82
2018-09-01T20:45:55.910Z,64.39
2018-09-01T20:48:25.177Z,64.71
2018-09-01T20:50:54.513Z,64.97
2018-09-01T20:53:23.687Z,64.42
2018-09-01T20:55:52.960Z,64.35
2018-09-01T20:58:22.269Z,65.29
2018-09-01T21:00:51.510Z,65.20
2018-09-01T21:03:20.735Z,65.17
2018-09-01T21:05:50.034Z,65.15
2018-09-01T21:08:19.356Z,65.68
2018-09-01T21:10:48.623Z,65.64
2018-09-01T21:13:17.923Z,65.42
2018-09-01T21:15:47.182Z,66.62
2018-09-01T21:18:16.374Z,66.64
2018-09-01T21:20:45.624Z,66.73
2018-09-01T21:23:14.881Z,67.34
2018-09-01T21:25:44.152Z,67.46
2018-09-01T21:28:13.376Z,67.67
2018-09-01T21:30:43.065Z,68.09
2018-09-01T21:33:12.427Z,67.50
2018-09-01T21:35:41.805Z,68.09
2018-09-01T21:38:11.051Z,68.98
2018-09-01T21:40:40.275Z,69.44
2018-09-01T21:43:09.535Z,69.40
2018-09-01T21:45:38.773Z,69.47
2018-09-01T21:48:08.081Z,69.34
2018-09-01T21:50:37.275Z,69.75
2018-09-01T21:53:06.604Z,70.06
2018-09-01T21:55:36.067Z,70.15
2018-09-01T21:58:05.323Z,70.51
2018-09-01T22:00:34.539Z,70.44
2018-09-01T22:03:03.753Z,70.99
2018-09-01T22:05:33.081Z,71.30
2018-09-01T22:08:02.259Z,71.53
2018-09-01T22:10:31.542Z,70.71
2018-09-01T22:13:00.778Z,71.30
2018-09-01T22:15:30.041Z,71.13
2018-09-01T22:17:59.323Z,71.83
2018-09-01T22:20:28.587Z,70.93
2018-09-01T22:22:58.048Z,71.14
2018-09-01T22:25:27.351Z,71.96
2018-09-01T22:27:56.529Z,71.32
2018-09-01T22:30:25.962Z,71.96
2018-09-01T22:32:55.215Z,71.63
2018-09-01T22:35:24.438Z,71.92
2018-09-01T22:37:53.635Z,71.03
2018-09-01T22:40:22.808Z,71.46
2018-09-01T22:42:52.046Z,71.50
2018-09-01T22:45:21.961Z,72.80
2018-09-01T22:47:51.100Z,72.98
2018-09-01T22:50:20.374Z,72.85
2018-09-01T22:52:50.572Z,73.29
2018-09-01T22:55:19.763Z,73.51
2018-09-01T22:57:48.969Z,73.41
2018-09-01T23:00:18.357Z,73.70
2018-09-01T23:05:44.284Z,74.43
2018-09-01T23:08:13.476Z,74.06
2018-09-01T23:10:42.730Z,73.84
2018-09-01T23:13:13.282Z,74.53
2018-09-01T23:15:42.492Z,75.13
2018-09-01T23:18:11.782Z,75.00
2018-09-01T23:20:41.096Z,75.28
2018-09-01T23:23:10.240Z,74.85
2018-09-01T23:25:39.462Z,76.23
2018-09-01T23:28:08.691Z,75.33
2018-09-01T23:30:44.429Z,76.30
2018-09-01T23:33:13.596Z,76.48
2018-09-01T23:35:42.842Z,76.49
2018-09-01T23:38:12.043Z,76.55
2018-09-01T23:40:41.355Z,77.40
2018-09-01T23:43:10.616Z,77.62
2018-09-01T23:45:39.868Z,77.42
2018-09-01T23:48:09.034Z,78.26
2018-09-01T23:50:38.265Z,78.40
2018-09-01T23:53:07.465Z,78.13
2018-09-01T23:55:36.651Z,78.50
2018-09-01T23:58:06.148Z,79.11
